Time;durP1;ratioP1;P1;durP2;ratioP2;P2;SDS_P1;SDS_P2;PMS_P1;PMS_P2;Temp;Humidity;BMP_temperature;BMP_pressure;BME280_temperature;BME280_humidity;BME280_pressure;Samples;Min_cycle;Max_cycle;Signal;HPM_P1;HPM_P2
2020/12/20 00:01:20;;;;;;;5.60;5.10;;;;;;;7.32;69.75;100700.34;5054510;28;20687;-79
2020/12/20 00:03:46;;;;;;;5.63;5.23;;;;;;;7.30;69.88;100708.13;5051231;28;20700;-80
2020/12/20 00:06:12;;;;;;;5.40;5.00;;;;;;;7.29;69.73;100701.19;5064246;28;20221;-78
2020/12/20 00:08:38;;;;;;;6.90;6.30;;;;;;;7.42;69.17;100701.19;5054153;28;20207;-79
2020/12/20 00:11:04;;;;;;;6.20;5.80;;;;;;;7.42;70.19;100696.00;5038453;28;20205;-79
2020/12/20 00:13:30;;;;;;;8.17;7.57;;;;;;;7.44;70.73;100705.50;5053673;28;20239;-79
2020/12/20 00:15:56;;;;;;;6.20;4.97;;;;;;;7.35;68.97;100690.81;5052378;28;20269;-78
2020/12/20 00:18:22;;;;;;;5.70;5.30;;;;;;;7.40;69.41;100697.72;5055130;28;20197;-79
2020/12/20 00:20:48;;;;;;;6.10;5.60;;;;;;;7.42;69.98;100707.25;5053034;28;20659;-79
2020/12/20 00:23:14;;;;;;;5.53;5.13;;;;;;;7.45;68.88;100706.38;5054036;28;20234;-77
2020/12/20 00:25:41;;;;;;;5.30;4.90;;;;;;;7.47;69.52;100709.81;5054096;28;20203;-78
2020/12/20 00:28:08;;;;;;;5.73;5.23;;;;;;;7.45;69.04;100699.47;5054756;28;20235;-78
2020/12/20 00:30:33;;;;;;;5.90;5.40;;;;;;;7.42;68.78;100711.56;5053012;28;20206;-79
2020/12/20 00:32:59;;;;;;;4.77;4.47;;;;;;;7.37;70.06;100721.94;5053570;28;20204;-79
2020/12/20 00:35:25;;;;;;;5.57;5.17;;;;;;;7.34;69.16;100720.22;5054632;28;20315;-78
2020/12/20 00:37:51;;;;;;;6.20;4.83;;;;;;;7.40;69.61;100721.97;5038362;28;20210;-79
2020/12/20 00:40:17;;;;;;;5.33;4.93;;;;;;;7.40;69.65;100724.56;5051152;28;20200;-79
2020/12/20 00:42:43;;;;;;;4.83;4.53;;;;;;;7.36;69.46;100718.50;5051324;28;20296;-78
2020/12/20 00:45:09;;;;;;;5.40;5.00;;;;;;;7.30;69.19;100720.25;5043888;28;20311;-79
2020/12/20 00:47:36;;;;;;;5.43;5.03;;;;;;;7.32;70.16;100713.31;5053515;28;20221;-79
2020/12/20 00:50:02;;;;;;;5.43;4.93;;;;;;;7.29;69.99;100721.09;5037857;28;20203;-79
2020/12/20 00:52:28;;;;;;;5.50;5.10;;;;;;;7.24;69.61;100715.06;5053418;28;20214;-78
2020/12/20 00:54:54;;;;;;;5.90;5.30;;;;;;;7.24;70.30;100712.47;5045944;28;20264;-78
2020/12/20 00:57:20;;;;;;;5.13;4.73;;;;;;;7.30;70.03;100705.53;5049655;28;20226;-79
2020/12/20 00:59:46;;;;;;;5.80;5.27;;;;;;;7.27;70.42;100712.44;5048044;28;20276;-79
2020/12/20 01:02:12;;;;;;;6.00;5.40;;;;;;;7.26;69.94;100710.72;5040239;28;20209;-78
2020/12/20 01:04:38;;;;;;;5.60;5.20;;;;;;;7.23;69.85;100719.38;5050962;28;20211;-79
2020/12/20 01:07:04;;;;;;;5.90;5.50;;;;;;;7.22;70.19;100717.66;5049212;28;20222;-79
2020/12/20 01:09:30;;;;;;;5.97;5.47;;;;;;;7.27;69.58;100718.50;5045003;28;20205;-79
2020/12/20 01:11:57;;;;;;;6.27;5.77;;;;;;;7.27;69.96;100723.69;5048174;28;20210;-78
2020/12/20 01:14:23;;;;;;;5.70;5.27;;;;;;;7.27;69.64;100720.22;5051749;28;20273;-79
2020/12/20 01:16:49;;;;;;;6.20;5.70;;;;;;;7.31;70.36;100727.16;5044412;28;20238;-78
2020/12/20 01:19:16;;;;;;;5.63;5.13;;;;;;;7.32;70.33;100726.31;5053562;28;20624;-79
2020/12/20 01:21:41;;;;;;;5.13;4.73;;;;;;;7.23;69.76;100732.34;5049989;28;20206;-78
2020/12/20 01:24:07;;;;;;;6.13;5.73;;;;;;;7.27;69.71;100723.69;5045837;28;20197;-79
2020/12/20 01:26:33;;;;;;;5.90;5.50;;;;;;;7.21;69.43;100733.22;5049913;28;20230;-79
2020/12/20 01:28:59;;;;;;;5.73;5.33;;;;;;;7.22;69.86;100737.56;5047740;28;20210;-78
2020/12/20 01:31:25;;;;;;;5.60;5.20;;;;;;;7.33;69.86;100735.81;5047721;28;20194;-79
2020/12/20 01:33:51;;;;;;;5.53;5.13;;;;;;;7.40;69.35;100737.53;5053503;28;20214;-79
2020/12/20 01:36:18;;;;;;;6.10;5.50;;;;;;;7.41;70.29;100746.19;5058020;28;20725;-78
2020/12/20 01:38:44;;;;;;;6.30;5.80;;;;;;;7.41;70.05;100741.84;5049601;28;20207;-79
2020/12/20 01:41:11;;;;;;;6.00;5.60;;;;;;;7.47;69.57;100734.09;5044163;28;20199;-79
2020/12/20 01:43:42;;;;;;;5.53;5.10;;;;;;;7.49;69.14;100736.66;5051826;28;20201;-79
2020/12/20 01:46:10;;;;;;;5.47;5.07;;;;;;;7.45;69.71;100734.94;5038650;28;20230;-80
2020/12/20 01:48:37;;;;;;;6.20;5.70;;;;;;;7.49;70.54;100741.84;5047782;28;20203;-79
2020/12/20 01:51:03;;;;;;;6.00;5.60;;;;;;;7.39;69.91;100740.13;5052654;28;20210;-79
2020/12/20 01:53:30;;;;;;;5.77;5.37;;;;;;;7.43;69.71;100740.13;5050922;28;20201;-79
2020/12/20 01:55:59;;;;;;;6.13;5.57;;;;;;;7.49;70.13;100745.34;5036467;28;20841;-79
2020/12/20 01:58:25;;;;;;;5.20;4.80;;;;;;;7.47;69.19;100741.88;5051355;28;20196;-78
2020/12/20 02:00:52;;;;;;;6.07;5.60;;;;;;;7.46;71.16;100739.28;5051727;28;20268;-78
2020/12/20 02:03:18;;;;;;;6.23;5.70;;;;;;;7.52;69.99;100736.66;5051957;28;20212;-78
2020/12/20 02:05:44;;;;;;;6.07;5.60;;;;;;;7.53;69.78;100726.28;5063042;28;20226;-79
2020/12/20 02:08:11;;;;;;;6.20;5.80;;;;;;;7.45;70.58;100721.94;5051668;28;20685;-78
2020/12/20 02:10:38;;;;;;;6.03;5.53;;;;;;;7.46;70.92;100721.94;5046169;28;20293;-79
2020/12/20 02:13:04;;;;;;;5.70;5.30;;;;;;;7.39;71.13;100728.00;5051739;28;20198;-79
2020/12/20 02:15:29;;;;;;;5.53;5.13;;;;;;;7.43;70.73;100726.28;5051588;28;20238;-78
2020/12/20 02:17:55;;;;;;;6.17;5.67;;;;;;;7.48;70.36;100733.19;5051931;28;20215;-79
2020/12/20 02:20:21;;;;;;;6.63;5.97;;;;;;;7.31;71.07;100743.63;5047573;28;20205;-79
2020/12/20 02:22:48;;;;;;;6.33;5.80;;;;;;;7.34;70.85;100735.81;5050879;28;20587;-81
2020/12/20 02:25:14;;;;;;;6.73;6.23;;;;;;;7.33;70.86;100739.28;5052317;28;20199;-79
2020/12/20 02:27:40;;;;;;;6.37;5.87;;;;;;;7.39;71.38;100747.94;5050873;28;20244;-79
2020/12/20 02:30:06;;;;;;;6.27;5.87;;;;;;;7.36;70.92;100747.06;5044212;28;20226;-79
2020/12/20 02:32:31;;;;;;;6.67;6.17;;;;;;;7.41;71.02;100741.84;5051634;28;20239;-79
2020/12/20 02:34:57;;;;;;;5.83;5.43;;;;;;;7.44;71.92;100741.00;5052867;28;20724;-78
2020/12/20 02:37:23;;;;;;;7.20;6.60;;;;;;;7.40;71.50;100724.56;5051157;28;20219;-77
2020/12/20 02:39:50;;;;;;;6.27;5.80;;;;;;;7.43;72.52;100726.28;5052117;28;20211;-77
2020/12/20 02:42:16;;;;;;;6.53;5.93;;;;;;;7.28;73.35;100724.56;5043037;28;20211;-80
2020/12/20 02:44:42;;;;;;;5.97;5.57;;;;;;;7.26;72.77;100716.78;5045191;28;20209;-79
2020/12/20 02:47:10;;;;;;;6.27;5.77;;;;;;;7.15;73.35;100716.81;5046391;28;20608;-79
2020/12/20 02:49:36;;;;;;;6.07;5.67;;;;;;;7.19;74.15;100707.25;5044579;28;20198;-78
2020/12/20 02:52:02;;;;;;;6.63;6.13;;;;;;;7.19;74.09;100715.03;5047857;28;20212;-80
2020/12/20 02:54:27;;;;;;;6.80;6.30;;;;;;;7.15;73.77;100721.09;5039061;28;20239;-79
2020/12/20 02:56:54;;;;;;;6.13;5.63;;;;;;;7.04;74.10;100728.06;5046892;28;20234;-79
2020/12/20 02:59:20;;;;;;;6.83;6.33;;;;;;;7.11;74.05;100733.22;5047457;28;20200;-78
2020/12/20 03:01:46;;;;;;;6.40;6.00;;;;;;;7.14;73.86;100734.97;5048716;28;20206;-78
2020/12/20 03:04:12;;;;;;;6.60;6.10;;;;;;;7.03;74.12;100719.38;5050634;28;20235;-78
2020/12/20 03:06:37;;;;;;;6.80;6.20;;;;;;;7.09;74.33;100718.50;5046485;28;20230;-79
2020/12/20 03:09:03;;;;;;;6.27;5.87;;;;;;;7.07;74.77;100723.69;5045914;28;20200;-79
2020/12/20 03:11:29;;;;;;;6.33;5.30;;;;;;;7.08;75.20;100732.38;5049263;28;20204;-79
2020/12/20 03:13:56;;;;;;;6.13;5.63;;;;;;;7.06;75.29;100731.50;5043708;28;20243;-79
2020/12/20 03:16:22;;;;;;;6.50;6.00;;;;;;;7.09;74.67;100728.91;5043015;28;20235;-79
2020/12/20 03:18:47;;;;;;;5.97;5.57;;;;;;;7.09;75.00;100731.50;5043747;28;20209;-78
2020/12/20 03:21:13;;;;;;;5.80;5.23;;;;;;;7.10;75.93;100734.09;5048028;28;20226;-79
2020/12/20 03:23:39;;;;;;;6.43;6.03;;;;;;;7.08;75.30;100732.38;5045476;28;20207;-79
2020/12/20 03:26:06;;;;;;;6.47;5.77;;;;;;;7.03;75.84;100724.56;5043471;28;20747;-79
2020/12/20 03:28:33;;;;;;;9.30;6.40;;;;;;;7.00;75.91;100722.00;5050216;28;20222;-79
2020/12/20 03:30:59;;;;;;;6.30;5.70;;;;;;;6.93;75.79;100715.91;5047596;28;20572;-79
2020/12/20 03:33:26;;;;;;;6.67;5.83;;;;;;;6.94;76.05;100722.84;5050856;28;20273;-79
2020/12/20 03:35:52;;;;;;;6.73;6.23;;;;;;;6.92;75.92;100721.13;5052728;28;20243;-80
2020/12/20 03:38:18;;;;;;;5.80;5.30;;;;;;;6.92;76.21;100721.97;5043279;28;20665;-78
2020/12/20 03:40:44;;;;;;;7.00;6.40;;;;;;;6.92;76.32;100724.56;5035646;28;20200;-78
2020/12/20 03:43:10;;;;;;;6.33;5.83;;;;;;;6.96;75.22;100728.03;5047503;28;20657;-77
2020/12/20 03:45:35;;;;;;;6.10;5.70;;;;;;;6.94;75.84;100728.03;5038614;28;20209;-79
2020/12/20 03:48:02;;;;;;;9.23;6.50;;;;;;;6.95;76.11;100721.97;5047138;28;20235;-79
2020/12/20 03:50:32;;;;;;;6.30;5.70;;;;;;;6.99;76.07;100725.44;5046318;28;20201;-79
2020/12/20 03:52:57;;;;;;;7.37;6.73;;;;;;;7.01;75.48;100733.22;5048327;28;20209;-78
2020/12/20 03:55:23;;;;;;;7.40;6.77;;;;;;;7.05;75.12;100728.03;5045920;28;20572;-79
2020/12/20 03:57:49;;;;;;;6.43;5.93;;;;;;;7.04;74.99;100733.25;5046559;28;20244;-79
2020/12/20 04:00:15;;;;;;;7.10;6.47;;;;;;;6.90;75.22;100725.44;5041366;28;20217;-79
2020/12/20 04:02:41;;;;;;;6.93;6.43;;;;;;;6.82;75.41;100729.75;5044931;28;20210;-78
2020/12/20 04:05:08;;;;;;;8.50;6.53;;;;;;;6.75;75.04;100734.06;5057508;28;20207;-79
2020/12/20 04:07:34;;;;;;;7.37;6.80;;;;;;;6.73;75.75;100728.88;5044995;28;20220;-79
2020/12/20 04:10:00;;;;;;;7.33;6.73;;;;;;;6.81;76.30;100731.47;5043412;28;20668;-78
2020/12/20 04:12:25;;;;;;;6.53;5.93;;;;;;;6.84;76.63;100718.53;5046123;28;20656;-79
2020/12/20 04:14:51;;;;;;;7.00;6.40;;;;;;;6.84;76.67;100718.53;5044472;28;20247;-78
2020/12/20 04:17:17;;;;;;;6.87;6.27;;;;;;;6.86;76.99;100713.34;5042069;28;20239;-79
2020/12/20 04:19:43;;;;;;;7.37;6.77;;;;;;;6.94;76.60;100717.66;5046802;28;20665;-77
2020/12/20 04:22:10;;;;;;;6.87;6.13;;;;;;;6.94;76.48;100727.19;5051035;28;20208;-78
2020/12/20 04:24:36;;;;;;;6.43;5.93;;;;;;;6.83;76.15;100726.28;5048283;28;20199;-79
2020/12/20 04:27:01;;;;;;;7.30;6.60;;;;;;;6.88;77.32;100725.44;5047742;28;20248;-79
2020/12/20 04:29:27;;;;;;;6.80;6.20;;;;;;;6.91;77.00;100719.38;5050060;28;20235;-79
2020/12/20 04:31:53;;;;;;;8.20;7.50;;;;;;;6.87;75.50;100717.66;5047771;28;20215;-79
2020/12/20 04:34:19;;;;;;;7.87;7.37;;;;;;;6.75;75.66;100710.72;5055670;28;20247;-79
2020/12/20 04:36:45;;;;;;;7.30;6.70;;;;;;;6.65;77.24;100719.34;5061458;28;20233;-78
2020/12/20 04:39:11;;;;;;;7.00;6.50;;;;;;;6.57;76.41;100717.59;5053791;28;20207;-79
2020/12/20 04:41:37;;;;;;;6.57;6.07;;;;;;;6.52;77.22;100721.03;5052131;28;20258;-79
2020/12/20 04:44:03;;;;;;;6.63;6.13;;;;;;;6.60;77.04;100728.84;5048843;28;20295;-78
2020/12/20 04:46:31;;;;;;;7.30;6.70;;;;;;;6.64;77.45;100725.38;5056181;28;20251;-79
2020/12/20 04:48:57;;;;;;;7.53;6.83;;;;;;;6.64;77.08;100730.56;5055843;28;20216;-78
2020/12/20 04:51:24;;;;;;;8.33;7.63;;;;;;;6.62;77.30;100727.13;5044496;28;20206;-79
2020/12/20 04:53:52;;;;;;;8.67;7.20;;;;;;;6.54;77.90;100727.09;5046817;28;20198;-79
2020/12/20 04:56:20;;;;;;;8.57;7.77;;;;;;;6.53;77.54;100723.66;5049352;28;20693;-78
2020/12/20 04:58:46;;;;;;;8.53;7.83;;;;;;;6.55;76.80;100718.47;5056286;28;20258;-78
2020/12/20 05:01:12;;;;;;;7.70;7.10;;;;;;;6.48;76.83;100721.91;5052738;28;20209;-79
2020/12/20 05:03:37;;;;;;;8.03;7.33;;;;;;;6.51;78.00;100721.91;5051370;28;20197;-78
2020/12/20 05:06:03;;;;;;;8.17;7.47;;;;;;;6.50;77.82;100713.28;5057275;28;20219;-79
2020/12/20 05:08:29;;;;;;;8.43;7.73;;;;;;;6.49;77.52;100708.94;5055404;28;20774;-79
2020/12/20 05:10:56;;;;;;;8.00;7.20;;;;;;;6.48;77.88;100709.81;5059134;28;20235;-79
2020/12/20 05:13:22;;;;;;;8.63;7.90;;;;;;;6.43;78.20;100710.66;5055292;28;20211;-79
2020/12/20 05:15:49;;;;;;;9.37;8.57;;;;;;;6.43;78.09;100697.72;5047334;28;20290;-78
2020/12/20 05:18:17;;;;;;;9.17;8.37;;;;;;;6.41;78.29;100704.63;5054363;28;20204;-79
2020/12/20 05:20:44;;;;;;;8.03;7.43;;;;;;;6.40;78.19;100708.91;5046932;28;20256;-79
2020/12/20 05:23:11;;;;;;;8.90;8.20;;;;;;;6.40;78.89;100719.28;5055750;28;20194;-78
2020/12/20 05:25:38;;;;;;;9.27;7.57;;;;;;;6.47;77.96;100712.41;5047381;28;20224;-78
2020/12/20 05:28:09;;;;;;;8.90;8.20;;;;;;;6.49;77.64;100718.47;5055770;28;20262;-78
2020/12/20 05:30:36;;;;;;;8.70;8.00;;;;;;;6.58;77.36;100723.69;5048493;28;20228;-79
2020/12/20 05:33:04;;;;;;;8.00;7.40;;;;;;;6.65;77.04;100727.13;5049674;28;20242;-79
2020/12/20 05:35:30;;;;;;;8.97;8.20;;;;;;;6.71;77.30;100733.19;5047312;28;20223;-78
2020/12/20 05:37:56;;;;;;;8.63;7.93;;;;;;;6.76;76.98;100738.41;5053405;28;20205;-79
2020/12/20 05:40:27;;;;;;;8.43;7.73;;;;;;;6.82;76.83;100734.94;5059322;28;20202;-78
2020/12/20 05:42:56;;;;;;;9.33;8.53;;;;;;;6.89;76.22;100732.34;5054442;28;20582;-79
2020/12/20 05:45:25;;;;;;;8.63;7.83;;;;;;;6.82;76.00;100734.94;5048068;28;20203;-79
2020/12/20 05:47:52;;;;;;;8.20;7.60;;;;;;;6.81;75.56;100735.81;5055145;28;20206;-79
2020/12/20 05:50:18;;;;;;;8.97;8.33;;;;;;;6.84;75.56;100743.56;5054994;28;20581;-79
2020/12/20 05:53:02;;;;;;;9.53;8.73;;;;;;;6.80;75.67;100741.84;5054241;28;20211;-79
2020/12/20 05:55:35;;;;;;;9.40;8.70;;;;;;;6.65;75.56;100740.09;5052037;28;20222;-78
2020/12/20 05:58:11;;;;;;;10.07;9.27;;;;;;;6.56;76.46;100748.72;5054476;28;20264;-79
2020/12/20 06:00:38;;;;;;;9.60;8.80;;;;;;;6.60;75.99;100744.41;5046652;28;20200;-78
2020/12/20 06:03:05;;;;;;;9.23;8.53;;;;;;;6.67;77.03;100735.78;5050413;28;20574;-79
2020/12/20 06:05:35;;;;;;;9.50;8.50;;;;;;;6.72;76.72;100734.06;5052438;28;20199;-79
2020/12/20 06:08:06;;;;;;;9.30;8.40;;;;;;;6.71;77.84;100735.78;5055678;28;20310;-78
2020/12/20 06:10:38;;;;;;;9.70;8.73;;;;;;;6.69;77.00;100740.09;5055596;28;20197;-79
2020/12/20 06:13:05;;;;;;;8.07;7.37;;;;;;;6.76;77.31;100744.44;5050954;28;20679;-78
2020/12/20 06:15:35;;;;;;;8.20;7.57;;;;;;;6.80;77.52;100745.34;5045872;28;20588;-78
2020/12/20 06:18:07;;;;;;;8.17;7.57;;;;;;;6.80;77.25;100749.63;5054306;28;20304;-78
2020/12/20 06:20:38;;;;;;;8.43;7.83;;;;;;;6.80;77.51;100750.53;5046526;28;20212;-79
2020/12/20 06:23:03;;;;;;;9.10;8.40;;;;;;;6.79;77.35;100747.91;5054488;28;20209;-78
2020/12/20 06:25:29;;;;;;;8.27;7.57;;;;;;;6.73;77.58;100754.81;5051502;28;20221;-78
2020/12/20 06:28:03;;;;;;;8.33;7.63;;;;;;;6.80;77.44;100752.22;5051103;28;20237;-79
2020/12/20 06:30:29;;;;;;;8.07;7.37;;;;;;;6.78;77.31;100738.38;5053724;28;20348;-79
2020/12/20 06:33:00;;;;;;;8.17;7.50;;;;;;;6.83;77.32;100739.28;5054197;28;20223;-79
2020/12/20 06:35:30;;;;;;;8.03;7.33;;;;;;;6.76;76.80;100736.66;5046136;28;20218;-79
2020/12/20 06:37:56;;;;;;;8.70;7.77;;;;;;;6.81;77.80;100721.09;5054072;28;20202;-78
2020/12/20 06:40:41;;;;;;;8.30;7.70;;;;;;;6.83;77.23;100713.31;5066439;28;20209;-79
2020/12/20 06:43:08;;;;;;;7.93;7.23;;;;;;;6.86;77.27;100718.53;5054578;28;20227;-79
2020/12/20 06:45:41;;;;;;;8.37;7.60;;;;;;;6.86;78.01;100729.75;5037355;28;20661;-79
2020/12/20 06:48:09;;;;;;;7.73;7.13;;;;;;;6.89;77.57;100731.50;5053514;28;20198;-79
2020/12/20 06:50:43;;;;;;;7.73;7.20;;;;;;;6.97;77.14;100730.63;5053922;28;20614;-79
2020/12/20 06:53:11;;;;;;;8.43;7.73;;;;;;;7.03;76.70;100723.72;5054287;28;20195;-79
2020/12/20 06:55:37;;;;;;;8.70;8.00;;;;;;;7.06;76.47;100726.31;5054019;28;20224;-79
2020/12/20 06:58:13;;;;;;;8.27;7.57;;;;;;;7.09;76.67;100731.50;5055209;28;20204;-79
2020/12/20 07:00:41;;;;;;;8.90;8.20;;;;;;;7.14;75.62;100738.41;5054418;28;20199;-78
2020/12/20 07:03:08;;;;;;;9.83;9.10;;;;;;;7.11;75.99;100743.59;5053817;28;20196;-79
2020/12/20 07:05:36;;;;;;;9.20;8.40;;;;;;;7.12;75.25;100731.50;5053930;28;20624;-79
2020/12/20 07:08:10;;;;;;;9.30;8.40;;;;;;;7.11;76.09;100724.56;5053920;28;20205;-79
2020/12/20 07:10:42;;;;;;;8.40;7.70;;;;;;;7.16;76.61;100723.72;5065988;28;20210;-79
2020/12/20 07:13:10;;;;;;;8.03;7.43;;;;;;;7.15;76.40;100715.91;5053996;28;20220;-79
2020/12/20 07:15:51;;;;;;;7.83;7.13;;;;;;;7.09;76.20;100723.72;5046281;28;20706;-78
2020/12/20 07:18:43;;;;;;;8.37;7.67;;;;;;;7.05;75.65;100728.03;5046727;28;20702;-79
2020/12/20 07:21:27;;;;;;;8.30;7.40;;;;;;;7.07;76.65;100730.63;5046457;28;20201;-79
2020/12/20 07:24:02;;;;;;;7.90;7.33;;;;;;;7.10;75.70;100731.50;5054064;28;20195;-78
2020/12/20 07:26:28;;;;;;;8.17;7.57;;;;;;;7.10;76.13;100726.31;5052672;28;20229;-78
2020/12/20 07:28:58;;;;;;;7.30;6.70;;;;;;;7.11;75.33;100725.44;5053503;28;20208;-79
2020/12/20 07:31:24;;;;;;;8.17;7.57;;;;;;;7.15;75.70;100734.09;5053701;28;20214;-79
2020/12/20 07:33:50;;;;;;;8.97;8.27;;;;;;;7.12;75.16;100724.59;5054023;28;20273;-78
2020/12/20 07:36:18;;;;;;;9.50;8.70;;;;;;;7.19;75.12;100724.56;5053952;28;20602;-79
2020/12/20 07:38:44;;;;;;;9.27;8.50;;;;;;;7.29;74.51;100721.09;5054521;28;20230;-79
2020/12/20 07:41:12;;;;;;;9.03;8.23;;;;;;;7.31;75.01;100730.63;5067021;28;20201;-78
2020/12/20 07:43:39;;;;;;;9.03;8.37;;;;;;;7.29;74.48;100726.28;5057410;28;20200;-78
2020/12/20 07:46:06;;;;;;;9.53;8.83;;;;;;;7.31;74.30;100735.84;5056251;28;20243;-78
2020/12/20 07:48:32;;;;;;;8.80;8.20;;;;;;;7.18;74.64;100739.28;5054632;28;20662;-78
2020/12/20 07:51:08;;;;;;;9.47;8.77;;;;;;;7.21;75.11;100738.41;5049294;28;20211;-78
2020/12/20 07:53:34;;;;;;;9.30;8.63;;;;;;;7.25;74.65;100734.94;5055334;28;20204;-78
2020/12/20 07:56:00;;;;;;;9.83;8.90;;;;;;;7.30;74.89;100747.06;5049126;28;20229;-78
2020/12/20 07:58:30;;;;;;;10.00;9.00;;;;;;;7.28;74.60;100746.22;5059826;28;20204;-79
2020/12/20 08:01:01;;;;;;;10.87;9.80;;;;;;;7.31;75.24;100746.22;5052195;28;20200;-79
2020/12/20 08:03:27;;;;;;;9.73;8.93;;;;;;;7.37;75.63;100732.34;5052633;28;20210;-78
2020/12/20 08:06:03;;;;;;;10.17;9.47;;;;;;;7.32;75.33;100731.50;5049624;28;20593;-78
2020/12/20 08:08:30;;;;;;;11.47;8.97;;;;;;;7.27;76.61;100741.00;5054334;28;20682;-78
2020/12/20 08:10:56;;;;;;;9.33;8.70;;;;;;;7.23;76.40;100739.28;5054298;28;20210;-79
2020/12/20 08:13:22;;;;;;;11.57;10.57;;;;;;;6.94;78.20;100730.63;5052444;28;20202;-79
2020/12/20 08:15:49;;;;;;;10.03;9.23;;;;;;;6.96;78.63;100734.09;5048609;28;20235;-78
2020/12/20 08:18:15;;;;;;;10.23;9.33;;;;;;;7.05;77.52;100741.00;5059082;28;20198;-78
2020/12/20 08:20:42;;;;;;;13.23;12.13;;;;;;;7.04;79.21;100770.44;5049429;28;20292;-78
2020/12/20 08:23:10;;;;;;;11.57;10.47;;;;;;;6.88;80.37;100773.88;5059060;28;20207;-79
2020/12/20 08:25:36;;;;;;;10.40;9.60;;;;;;;6.92;80.08;100768.69;5049229;28;20196;-78
2020/12/20 08:28:02;;;;;;;10.80;9.80;;;;;;;7.03;80.35;100768.69;5058447;28;20271;-78
2020/12/20 08:30:28;;;;;;;10.53;9.70;;;;;;;7.12;79.68;100773.03;5048156;28;20625;-79
2020/12/20 08:32:55;;;;;;;11.83;10.93;;;;;;;7.16;79.60;100775.63;5055783;28;20231;-79
2020/12/20 08:35:22;;;;;;;10.63;9.83;;;;;;;7.29;79.85;100775.63;5051301;28;20218;-78
2020/12/20 08:37:53;;;;;;;10.90;10.00;;;;;;;7.33;79.65;100782.56;5057902;28;20596;-78
2020/12/20 08:40:19;;;;;;;9.80;9.03;;;;;;;7.31;80.31;100781.69;5068611;28;20673;-79
2020/12/20 08:42:47;;;;;;;10.70;9.80;;;;;;;7.39;79.73;100776.50;5057425;28;20204;-78
2020/12/20 08:45:15;;;;;;;11.27;10.37;;;;;;;7.41;79.72;100774.75;5051792;28;20311;-78
2020/12/20 08:47:43;;;;;;;12.10;11.13;;;;;;;7.31;80.42;100769.59;5059058;28;20221;-78
2020/12/20 08:50:11;;;;;;;12.30;11.30;;;;;;;7.37;80.96;100771.28;5057703;28;20202;-79
2020/12/20 08:52:37;;;;;;;12.60;11.60;;;;;;;7.32;81.29;100773.03;5057721;28;20212;-78
2020/12/20 08:55:05;;;;;;;11.10;10.20;;;;;;;7.36;79.76;100772.19;5054439;28;20235;-78
2020/12/20 08:57:32;;;;;;;11.53;10.53;;;;;;;7.33;79.49;100769.56;5053089;28;20224;-77
2020/12/20 09:00:08;;;;;;;10.90;10.10;;;;;;;7.24;79.78;100775.63;5059892;28;20199;-78
2020/12/20 09:02:34;;;;;;;10.60;9.70;;;;;;;7.29;79.26;100773.88;5059569;28;20293;-78
2020/12/20 09:05:01;;;;;;;11.37;10.47;;;;;;;7.35;79.97;100776.50;5056533;28;20201;-78
2020/12/20 09:07:32;;;;;;;10.90;10.10;;;;;;;7.41;80.19;100775.63;5053185;28;20221;-79
2020/12/20 09:10:10;;;;;;;11.30;10.50;;;;;;;7.36;79.76;100777.38;5068215;28;20253;-78
2020/12/20 09:12:37;;;;;;;10.77;9.93;;;;;;;7.49;79.62;100792.09;5065779;28;20206;-78
2020/12/20 09:15:06;;;;;;;10.67;9.77;;;;;;;7.57;79.00;100779.06;5055143;28;20590;-79
2020/12/20 09:17:37;;;;;;;10.97;10.17;;;;;;;7.62;79.23;100781.69;5059765;28;20238;-79
2020/12/20 09:20:06;;;;;;;12.07;11.07;;;;;;;7.52;80.30;100783.41;5055643;28;20200;-79
2020/12/20 09:22:40;;;;;;;11.03;10.10;;;;;;;7.35;81.05;100784.31;5054286;28;20207;-79
2020/12/20 09:25:07;;;;;;;11.00;10.10;;;;;;;7.30;80.50;100786.03;5052034;28;20206;-79
2020/12/20 09:27:33;;;;;;;10.50;9.60;;;;;;;7.16;79.53;100787.75;5052426;28;20298;-79
2020/12/20 09:30:00;;;;;;;10.93;10.03;;;;;;;7.24;80.19;100791.22;5052200;28;20206;-79
2020/12/20 09:32:26;;;;;;;9.93;8.87;;;;;;;7.30;79.07;100788.63;5050745;28;20295;-79
2020/12/20 09:34:52;;;;;;;10.60;9.67;;;;;;;7.19;78.71;100798.13;5054373;28;20232;-79
2020/12/20 09:37:18;;;;;;;11.03;10.13;;;;;;;7.15;78.12;100809.38;5055662;28;20230;-80
2020/12/20 09:39:58;;;;;;;11.27;10.23;;;;;;;7.05;79.07;100807.63;5065269;28;20212;-80
2020/12/20 09:42:24;;;;;;;11.10;10.13;;;;;;;7.15;79.56;100804.19;5060311;28;20261;-79
2020/12/20 09:44:50;;;;;;;11.60;10.63;;;;;;;7.18;78.53;100809.38;5052468;28;20213;-79
2020/12/20 09:47:16;;;;;;;11.50;10.17;;;;;;;7.20;79.31;100806.81;5058911;28;20270;-79
2020/12/20 09:49:42;;;;;;;11.30;10.40;;;;;;;7.25;78.43;100797.25;5058497;28;20297;-81
2020/12/20 09:52:08;;;;;;;10.80;10.00;;;;;;;7.26;78.49;100786.03;5057896;28;21592;-80
2020/12/20 09:54:34;;;;;;;10.93;10.03;;;;;;;7.28;78.80;100786.91;5051960;28;20672;-80
2020/12/20 09:57:00;;;;;;;10.60;9.80;;;;;;;7.36;78.78;100782.56;5053720;28;20234;-80
2020/12/20 09:59:26;;;;;;;10.03;9.33;;;;;;;7.38;77.72;100779.97;5055887;28;20255;-80
2020/12/20 10:01:52;;;;;;;10.47;9.60;;;;;;;7.54;77.55;100781.69;5053991;28;20217;-80
2020/12/20 10:04:18;;;;;;;10.67;9.87;;;;;;;7.53;77.65;100780.81;5053552;28;20223;-80
2020/12/20 10:06:44;;;;;;;10.43;9.63;;;;;;;7.61;77.56;100779.94;5053728;28;20225;-80
2020/12/20 10:09:10;;;;;;;10.00;9.20;;;;;;;7.51;77.23;100779.06;5053542;28;20699;-80
2020/12/20 10:11:36;;;;;;;9.50;8.70;;;;;;;7.48;78.69;100777.34;5045252;28;20262;-80
2020/12/20 10:14:02;;;;;;;13.33;12.10;;;;;;;7.66;79.08;100771.28;5048478;28;20201;-81
2020/12/20 10:16:29;;;;;;;10.03;9.20;;;;;;;7.76;78.60;100762.59;5047978;28;20655;-80
2020/12/20 10:18:54;;;;;;;11.03;10.13;;;;;;;7.84;77.16;100759.13;5044985;28;20758;-81
2020/12/20 10:21:20;;;;;;;10.67;9.50;;;;;;;7.81;76.19;100754.78;5048001;28;20207;-80
2020/12/20 10:23:46;;;;;;;10.03;9.07;;;;;;;7.61;75.84;100751.34;5045691;28;20623;-81
2020/12/20 10:26:12;;;;;;;10.60;9.70;;;;;;;7.74;77.02;100760.88;5047644;28;20219;-81
2020/12/20 10:28:38;;;;;;;10.00;9.20;;;;;;;7.87;76.71;100761.69;5047356;28;20201;-81
2020/12/20 10:31:05;;;;;;;10.77;9.97;;;;;;;7.95;76.07;100760.81;5045618;28;20201;-81
2020/12/20 10:33:31;;;;;;;10.40;9.60;;;;;;;7.91;76.30;100766.03;5059208;22;20239;-82
2020/12/20 10:35:57;;;;;;;10.77;9.97;;;;;;;8.03;76.60;100772.94;5052014;28;20256;-82
2020/12/20 10:38:24;;;;;;;9.93;9.17;;;;;;;8.12;76.37;100773.75;5045875;28;20214;-80
2020/12/20 10:40:49;;;;;;;9.07;8.37;;;;;;;8.19;76.06;100772.00;5049249;28;20201;-80
2020/12/20 10:43:15;;;;;;;9.30;8.63;;;;;;;8.26;78.15;100768.50;5027360;28;20275;-82
2020/12/20 10:45:41;;;;;;;11.33;10.23;;;;;;;8.26;76.06;100768.50;5020226;28;20201;-81
2020/12/20 10:48:08;;;;;;;10.30;9.40;;;;;;;8.28;75.37;100768.50;5026728;28;20210;-82
2020/12/20 10:50:34;;;;;;;9.50;8.70;;;;;;;8.15;75.07;100778.09;5012313;28;20206;-82
2020/12/20 10:53:01;;;;;;;9.80;9.10;;;;;;;8.15;77.13;100776.34;5022462;28;20239;-81
2020/12/20 10:55:27;;;;;;;9.10;8.40;;;;;;;8.15;77.77;100778.09;5021308;28;20229;-82
2020/12/20 10:57:53;;;;;;;9.03;8.13;;;;;;;8.03;77.87;100770.34;5016930;28;20212;-82
2020/12/20 11:00:19;;;;;;;9.10;8.37;;;;;;;8.06;79.11;100778.97;5011917;28;20272;-80
2020/12/20 11:02:44;;;;;;;9.40;8.60;;;;;;;8.13;78.24;100770.28;5011172;28;20229;-80
2020/12/20 11:05:11;;;;;;;9.10;8.30;;;;;;;8.29;77.69;100770.22;5010796;28;20205;-81
2020/12/20 11:07:37;;;;;;;8.97;8.17;;;;;;;8.33;76.20;100764.16;5011692;28;20217;-81
2020/12/20 11:10:03;;;;;;;8.90;8.13;;;;;;;8.56;78.90;100753.63;5010850;28;20294;-81
2020/12/20 11:12:29;;;;;;;9.40;8.60;;;;;;;8.61;76.98;100758.84;5011553;28;20234;-80
2020/12/20 11:14:54;;;;;;;8.77;8.17;;;;;;;8.62;76.77;100750.13;5009591;28;20609;-82
2020/12/20 11:17:20;;;;;;;9.20;8.50;;;;;;;8.68;76.19;100735.38;5010009;28;20748;-81
2020/12/20 11:19:46;;;;;;;8.80;8.20;;;;;;;8.66;75.77;100741.44;5010621;28;20237;-81
2020/12/20 11:22:13;;;;;;;9.17;8.40;;;;;;;8.67;75.56;100741.44;5010656;28;20233;-80
2020/12/20 11:24:39;;;;;;;9.27;8.57;;;;;;;8.71;74.47;100739.69;5010812;28;20217;-81
2020/12/20 11:27:04;;;;;;;9.10;8.30;;;;;;;8.72;75.71;100731.00;5010753;28;20266;-82
2020/12/20 11:29:30;;;;;;;8.73;7.97;;;;;;;8.68;75.51;100740.56;5011440;28;20264;-80
2020/12/20 11:31:56;;;;;;;12.17;9.30;;;;;;;8.79;76.44;100744.84;5010644;28;20717;-81